This is the latest recevied weather packets stored in our database for station/object N7DQ. If no packets are shown the sender has not sent any weather packets the latest 10 day(s).
| Time | Temp. | Humidity | Pressure | Rain* | Wind** | Luminosity | Snow |
|---|---|---|---|---|---|---|---|
| 1777665007 | 19.44° C | 65% | 1017.3 hPa | 0 mm | - | 738 W/m² | - |
| 1777664706 | 19.44° C | 65% | 1017.4 hPa | 0 mm | - | 810 W/m² | - |
| 1777664406 | 19.44° C | 70% | 1017.3 hPa | 0 mm | - | 867 W/m² | - |
| 1777664106 | 18.89° C | 68% | 1017.4 hPa | 0 mm | - | 842 W/m² | - |
| 1777663806 | 18.89° C | 67% | 1017.4 hPa | 0 mm | - | 889 W/m² | - |
| 1777663506 | 18.89° C | 68% | 1017.5 hPa | 0 mm | - | 633 W/m² | - |
| 1777663206 | 18.33° C | 67% | 1017.5 hPa | 0 mm | - | 742 W/m² | - |
| 1777651807 | 13.33° C | 81% | 1018.1 hPa | 0 mm | - | 329 W/m² | - |
| 1777648506 | 12.22° C | 84% | 1018 hPa | 0 mm | - | 151 W/m² | - |
| 1777648206 | 12.22° C | 84% | 1018 hPa | 0 mm | - | 125 W/m² | - |
| 1777640406 | 11.11° C | 88% | 1017.3 hPa | 0 mm | - | 0 W/m² | - |
| 1777599005 | 26.11° C | 45% | 1014.6 hPa | 0 mm | - | 237 W/m² | - |
| 1777598706 | 26.11° C | 45% | 1014.6 hPa | 0 mm | - | 248 W/m² | - |
| 1777598405 | 26.11° C | 43% | 1014.7 hPa | 0 mm | - | 250 W/m² | - |
| 1777598106 | 26.11° C | 42% | 1014.7 hPa | 0 mm | - | 258 W/m² | - |
| 1777597805 | 26.67° C | 42% | 1014.7 hPa | 0 mm | - | 313 W/m² | - |
| 1777597505 | 26.67° C | 39% | 1014.8 hPa | 0 mm | - | 339 W/m² | - |
| 1777597205 | 26.67° C | 38% | 1014.8 hPa | 0 mm | - | 359 W/m² | - |
| 1777596905 | 26.67° C | 33% | 1014.8 hPa | 0 mm | - | 376 W/m² | - |
| 1777596605 | 26.67° C | 34% | 1015 hPa | 0 mm | - | 394 W/m² | - |
| 1777596305 | 26.67° C | 38% | 1014.9 hPa | 0 mm | - | 401 W/m² | - |
| 1777596006 | 27.22° C | 32% | 1015 hPa | 0 mm | - | 425 W/m² | - |
| 1777595705 | 27.78° C | 26% | 1015 hPa | 0 mm | - | 443 W/m² | - |
| 1777587605 | 26.11° C | 38% | 1016.6 hPa | 0 mm | - | 788 W/m² | - |
| 1777587304 | 26.11° C | 39% | 1016.7 hPa | 0 mm | - | 701 W/m² | - |
* Rain latest hour (hover to see other rain measurements)
** Current wind speed in m/s (hover to see current wind gust speed)